sensor_id;sensor_type;location;lat;lon;timestamp;P1;durP1;ratioP1;P2;durP2;ratioP2
69392;SDS011;56582;44.624;20.378;2022-08-04T00:01:23;12.10;;;10.23;;
69392;SDS011;56582;44.624;20.378;2022-08-04T00:04:03;10.93;;;8.93;;
69392;SDS011;56582;44.624;20.378;2022-08-04T00:06:42;10.18;;;9.02;;
69392;SDS011;56582;44.624;20.378;2022-08-04T00:09:37;12.85;;;9.52;;
69392;SDS011;56582;44.624;20.378;2022-08-04T00:12:09;9.68;;;8.60;;
69392;SDS011;56582;44.624;20.378;2022-08-04T00:14:37;13.33;;;9.97;;
69392;SDS011;56582;44.624;20.378;2022-08-04T00:17:10;13.32;;;10.52;;
69392;SDS011;56582;44.624;20.378;2022-08-04T00:19:39;13.60;;;10.20;;
69392;SDS011;56582;44.624;20.378;2022-08-04T00:22:08;14.05;;;10.57;;
69392;SDS011;56582;44.624;20.378;2022-08-04T00:24:35;15.30;;;10.82;;
69392;SDS011;56582;44.624;20.378;2022-08-04T00:27:01;13.43;;;11.07;;
69392;SDS011;56582;44.624;20.378;2022-08-04T00:29:27;12.20;;;10.40;;
69392;SDS011;56582;44.624;20.378;2022-08-04T00:31:57;16.10;;;11.10;;
69392;SDS011;56582;44.624;20.378;2022-08-04T00:34:27;14.70;;;10.40;;
69392;SDS011;56582;44.624;20.378;2022-08-04T00:39:57;15.10;;;10.18;;
69392;SDS011;56582;44.624;20.378;2022-08-04T00:46:13;15.77;;;10.67;;
69392;SDS011;56582;44.624;20.378;2022-08-04T00:57:06;13.85;;;11.23;;
69392;SDS011;56582;44.624;20.378;2022-08-04T01:05:20;16.90;;;13.02;;
69392;SDS011;56582;44.624;20.378;2022-08-04T01:08:09;19.00;;;12.88;;
69392;SDS011;56582;44.624;20.378;2022-08-04T01:13:46;15.80;;;13.00;;
69392;SDS011;56582;44.624;20.378;2022-08-04T01:16:15;17.40;;;12.20;;
69392;SDS011;56582;44.624;20.378;2022-08-04T01:27:05;13.93;;;10.83;;
69392;SDS011;56582;44.624;20.378;2022-08-04T01:29:52;15.00;;;10.93;;
69392;SDS011;56582;44.624;20.378;2022-08-04T01:32:24;15.40;;;12.23;;
69392;SDS011;56582;44.624;20.378;2022-08-04T01:34:59;15.65;;;11.30;;
69392;SDS011;56582;44.624;20.378;2022-08-04T01:40:17;13.43;;;11.00;;
69392;SDS011;56582;44.624;20.378;2022-08-04T01:42:45;12.88;;;10.80;;
69392;SDS011;56582;44.624;20.378;2022-08-04T01:45:14;13.25;;;10.90;;
69392;SDS011;56582;44.624;20.378;2022-08-04T01:47:42;14.43;;;10.88;;
69392;SDS011;56582;44.624;20.378;2022-08-04T01:50:13;17.65;;;11.20;;
69392;SDS011;56582;44.624;20.378;2022-08-04T01:52:41;16.87;;;11.07;;
69392;SDS011;56582;44.624;20.378;2022-08-04T01:55:08;16.20;;;11.07;;
69392;SDS011;56582;44.624;20.378;2022-08-04T01:57:42;14.15;;;10.85;;
69392;SDS011;56582;44.624;20.378;2022-08-04T02:00:12;15.27;;;10.85;;
69392;SDS011;56582;44.624;20.378;2022-08-04T02:02:43;13.53;;;10.67;;
69392;SDS011;56582;44.624;20.378;2022-08-04T02:05:10;17.42;;;10.70;;
69392;SDS011;56582;44.624;20.378;2022-08-04T02:17:53;15.32;;;10.38;;
69392;SDS011;56582;44.624;20.378;2022-08-04T02:20:33;19.92;;;9.73;;
69392;SDS011;56582;44.624;20.378;2022-08-04T02:23:06;25.85;;;9.00;;
69392;SDS011;56582;44.624;20.378;2022-08-04T02:25:39;19.38;;;9.50;;
69392;SDS011;56582;44.624;20.378;2022-08-04T02:30:46;21.98;;;9.85;;
69392;SDS011;56582;44.624;20.378;2022-08-04T02:33:22;22.55;;;9.57;;
69392;SDS011;56582;44.624;20.378;2022-08-04T02:35:53;24.58;;;9.82;;
69392;SDS011;56582;44.624;20.378;2022-08-04T02:38:24;13.70;;;9.65;;
69392;SDS011;56582;44.624;20.378;2022-08-04T02:40:58;16.27;;;9.47;;
69392;SDS011;56582;44.624;20.378;2022-08-04T02:43:26;14.73;;;10.45;;
69392;SDS011;56582;44.624;20.378;2022-08-04T02:45:54;16.00;;;10.32;;
69392;SDS011;56582;44.624;20.378;2022-08-04T02:48:23;16.88;;;10.40;;
69392;SDS011;56582;44.624;20.378;2022-08-04T02:50:52;12.30;;;9.57;;
69392;SDS011;56582;44.624;20.378;2022-08-04T02:53:20;13.73;;;9.77;;
69392;SDS011;56582;44.624;20.378;2022-08-04T02:55:46;15.43;;;9.82;;
69392;SDS011;56582;44.624;20.378;2022-08-04T02:58:14;16.50;;;10.07;;
69392;SDS011;56582;44.624;20.378;2022-08-04T03:00:43;14.68;;;9.02;;
69392;SDS011;56582;44.624;20.378;2022-08-04T03:03:15;19.15;;;9.27;;
69392;SDS011;56582;44.624;20.378;2022-08-04T03:11:01;12.55;;;8.77;;
69392;SDS011;56582;44.624;20.378;2022-08-04T03:14:00;12.50;;;8.75;;
69392;SDS011;56582;44.624;20.378;2022-08-04T03:28:31;15.17;;;9.50;;
69392;SDS011;56582;44.624;20.378;2022-08-04T03:42:48;15.90;;;9.35;;
69392;SDS011;56582;44.624;20.378;2022-08-04T03:48:32;11.68;;;8.93;;
69392;SDS011;56582;44.624;20.378;2022-08-04T03:54:09;18.90;;;9.60;;
69392;SDS011;56582;44.624;20.378;2022-08-04T03:57:01;19.10;;;9.95;;
69392;SDS011;56582;44.624;20.378;2022-08-04T04:05:16;20.77;;;10.00;;
69392;SDS011;56582;44.624;20.378;2022-08-04T04:08:23;23.75;;;9.85;;
69392;SDS011;56582;44.624;20.378;2022-08-04T04:16:42;20.85;;;10.77;;
69392;SDS011;56582;44.624;20.378;2022-08-04T04:24:52;13.85;;;9.90;;
69392;SDS011;56582;44.624;20.378;2022-08-04T04:30:15;12.00;;;9.77;;
69392;SDS011;56582;44.624;20.378;2022-08-04T04:32:58;15.27;;;10.45;;
69392;SDS011;56582;44.624;20.378;2022-08-04T04:41:14;13.13;;;10.07;;
69392;SDS011;56582;44.624;20.378;2022-08-04T04:43:49;15.93;;;10.32;;
69392;SDS011;56582;44.624;20.378;2022-08-04T04:46:45;13.43;;;9.88;;
69392;SDS011;56582;44.624;20.378;2022-08-04T04:54:32;18.70;;;10.37;;
69392;SDS011;56582;44.624;20.378;2022-08-04T05:05:38;15.68;;;11.25;;
69392;SDS011;56582;44.624;20.378;2022-08-04T05:11:45;13.65;;;10.43;;
69392;SDS011;56582;44.624;20.378;2022-08-04T05:14:33;13.07;;;10.30;;
69392;SDS011;56582;44.624;20.378;2022-08-04T05:17:32;14.60;;;10.85;;
69392;SDS011;56582;44.624;20.378;2022-08-04T05:20:04;11.77;;;10.32;;
69392;SDS011;56582;44.624;20.378;2022-08-04T05:25:26;14.68;;;11.35;;
69392;SDS011;56582;44.624;20.378;2022-08-04T05:30:42;15.75;;;11.20;;
69392;SDS011;56582;44.624;20.378;2022-08-04T05:33:38;14.65;;;10.50;;
69392;SDS011;56582;44.624;20.378;2022-08-04T05:36:05;15.27;;;10.50;;
69392;SDS011;56582;44.624;20.378;2022-08-04T05:38:38;12.20;;;10.48;;
69392;SDS011;56582;44.624;20.378;2022-08-04T05:41:06;15.25;;;10.60;;
69392;SDS011;56582;44.624;20.378;2022-08-04T05:43:33;15.40;;;10.27;;
69392;SDS011;56582;44.624;20.378;2022-08-04T05:46:01;12.43;;;10.85;;
69392;SDS011;56582;44.624;20.378;2022-08-04T05:48:28;13.20;;;9.80;;
69392;SDS011;56582;44.624;20.378;2022-08-04T05:50:57;12.88;;;10.90;;
69392;SDS011;56582;44.624;20.378;2022-08-04T05:53:23;12.60;;;11.05;;
69392;SDS011;56582;44.624;20.378;2022-08-04T05:55:49;13.63;;;10.98;;
69392;SDS011;56582;44.624;20.378;2022-08-04T05:58:16;15.55;;;11.18;;
69392;SDS011;56582;44.624;20.378;2022-08-04T06:00:42;12.43;;;10.33;;
69392;SDS011;56582;44.624;20.378;2022-08-04T06:03:10;13.63;;;11.32;;
69392;SDS011;56582;44.624;20.378;2022-08-04T06:05:37;13.63;;;11.30;;
69392;SDS011;56582;44.624;20.378;2022-08-04T06:08:05;12.85;;;10.32;;
69392;SDS011;56582;44.624;20.378;2022-08-04T06:10:32;12.20;;;9.45;;
69392;SDS011;56582;44.624;20.378;2022-08-04T06:13:02;13.03;;;9.50;;
69392;SDS011;56582;44.624;20.378;2022-08-04T06:15:31;12.32;;;9.40;;
69392;SDS011;56582;44.624;20.378;2022-08-04T06:18:00;15.02;;;8.85;;
69392;SDS011;56582;44.624;20.378;2022-08-04T06:20:29;11.98;;;10.18;;
69392;SDS011;56582;44.624;20.378;2022-08-04T06:22:59;11.65;;;9.20;;
69392;SDS011;56582;44.624;20.378;2022-08-04T06:25:30;12.73;;;9.30;;
69392;SDS011;56582;44.624;20.378;2022-08-04T06:27:57;10.98;;;8.75;;
69392;SDS011;56582;44.624;20.378;2022-08-04T06:30:26;13.13;;;9.70;;
69392;SDS011;56582;44.624;20.378;2022-08-04T06:32:54;13.15;;;9.70;;
69392;SDS011;56582;44.624;20.378;2022-08-04T06:35:21;12.90;;;9.68;;
69392;SDS011;56582;44.624;20.378;2022-08-04T06:37:49;14.23;;;9.00;;
69392;SDS011;56582;44.624;20.378;2022-08-04T06:40:17;12.50;;;9.63;;
69392;SDS011;56582;44.624;20.378;2022-08-04T06:42:44;12.55;;;8.70;;
69392;SDS011;56582;44.624;20.378;2022-08-04T06:45:11;12.23;;;8.80;;
69392;SDS011;56582;44.624;20.378;2022-08-04T06:47:38;14.15;;;9.20;;
69392;SDS011;56582;44.624;20.378;2022-08-04T06:50:06;13.33;;;8.53;;
69392;SDS011;56582;44.624;20.378;2022-08-04T06:52:33;11.23;;;8.65;;
69392;SDS011;56582;44.624;20.378;2022-08-04T06:54:58;10.52;;;8.93;;
69392;SDS011;56582;44.624;20.378;2022-08-04T06:57:25;11.07;;;9.33;;
69392;SDS011;56582;44.624;20.378;2022-08-04T06:59:57;11.88;;;8.82;;
69392;SDS011;56582;44.624;20.378;2022-08-04T07:02:26;11.77;;;9.33;;
69392;SDS011;56582;44.624;20.378;2022-08-04T07:04:53;13.45;;;9.23;;
69392;SDS011;56582;44.624;20.378;2022-08-04T07:07:18;14.43;;;10.48;;
69392;SDS011;56582;44.624;20.378;2022-08-04T07:09:44;11.30;;;9.33;;
69392;SDS011;56582;44.624;20.378;2022-08-04T07:12:10;11.75;;;8.23;;
69392;SDS011;56582;44.624;20.378;2022-08-04T07:14:36;9.68;;;8.52;;
69392;SDS011;56582;44.624;20.378;2022-08-04T07:17:04;12.05;;;9.27;;
69392;SDS011;56582;44.624;20.378;2022-08-04T07:19:32;10.30;;;9.10;;
69392;SDS011;56582;44.624;20.378;2022-08-04T07:22:04;11.30;;;8.70;;
69392;SDS011;56582;44.624;20.378;2022-08-04T07:24:33;14.32;;;9.23;;
69392;SDS011;56582;44.624;20.378;2022-08-04T07:27:01;16.38;;;9.30;;
69392;SDS011;56582;44.624;20.378;2022-08-04T07:29:29;11.68;;;8.75;;
69392;SDS011;56582;44.624;20.378;2022-08-04T07:31:56;13.27;;;9.00;;
69392;SDS011;56582;44.624;20.378;2022-08-04T07:34:22;10.52;;;8.40;;
69392;SDS011;56582;44.624;20.378;2022-08-04T07:36:50;12.90;;;8.57;;
69392;SDS011;56582;44.624;20.378;2022-08-04T07:39:17;10.73;;;8.18;;
69392;SDS011;56582;44.624;20.378;2022-08-04T07:41:43;14.07;;;9.15;;
69392;SDS011;56582;44.624;20.378;2022-08-04T07:44:09;12.90;;;8.50;;
69392;SDS011;56582;44.624;20.378;2022-08-04T07:46:38;12.57;;;8.40;;
69392;SDS011;56582;44.624;20.378;2022-08-04T07:49:04;11.70;;;9.07;;
69392;SDS011;56582;44.624;20.378;2022-08-04T07:51:30;12.57;;;8.93;;
69392;SDS011;56582;44.624;20.378;2022-08-04T07:53:57;9.98;;;8.07;;
69392;SDS011;56582;44.624;20.378;2022-08-04T07:56:27;11.82;;;8.93;;
69392;SDS011;56582;44.624;20.378;2022-08-04T07:58:53;11.68;;;8.38;;
69392;SDS011;56582;44.624;20.378;2022-08-04T08:01:20;11.13;;;8.10;;
69392;SDS011;56582;44.624;20.378;2022-08-04T08:03:46;10.20;;;8.23;;
69392;SDS011;56582;44.624;20.378;2022-08-04T08:06:12;9.88;;;8.13;;
69392;SDS011;56582;44.624;20.378;2022-08-04T08:08:38;11.68;;;8.38;;
69392;SDS011;56582;44.624;20.378;2022-08-04T08:11:05;12.50;;;8.17;;
69392;SDS011;56582;44.624;20.378;2022-08-04T08:13:31;12.75;;;8.38;;
69392;SDS011;56582;44.624;20.378;2022-08-04T08:15:57;11.50;;;8.65;;
69392;SDS011;56582;44.624;20.378;2022-08-04T08:18:23;10.60;;;8.13;;
69392;SDS011;56582;44.624;20.378;2022-08-04T08:20:49;11.13;;;8.07;;
69392;SDS011;56582;44.624;20.378;2022-08-04T08:23:17;10.77;;;7.73;;
69392;SDS011;56582;44.624;20.378;2022-08-04T08:25:43;11.82;;;8.18;;
69392;SDS011;56582;44.624;20.378;2022-08-04T08:28:09;10.60;;;7.78;;
69392;SDS011;56582;44.624;20.378;2022-08-04T08:30:35;8.60;;;7.07;;
69392;SDS011;56582;44.624;20.378;2022-08-04T08:33:02;9.75;;;7.30;;
69392;SDS011;56582;44.624;20.378;2022-08-04T08:35:32;8.23;;;6.50;;
69392;SDS011;56582;44.624;20.378;2022-08-04T08:38:04;10.93;;;7.50;;
69392;SDS011;56582;44.624;20.378;2022-08-04T08:40:42;10.00;;;6.85;;
69392;SDS011;56582;44.624;20.378;2022-08-04T08:43:30;8.82;;;7.63;;
69392;SDS011;56582;44.624;20.378;2022-08-04T09:00:17;8.43;;;6.35;;
69392;SDS011;56582;44.624;20.378;2022-08-04T09:11:25;7.75;;;5.53;;
69392;SDS011;56582;44.624;20.378;2022-08-04T09:13:59;6.10;;;4.97;;
69392;SDS011;56582;44.624;20.378;2022-08-04T09:16:54;6.72;;;5.65;;
69392;SDS011;56582;44.624;20.378;2022-08-04T09:19:28;8.53;;;5.30;;
69392;SDS011;56582;44.624;20.378;2022-08-04T09:22:02;6.47;;;5.28;;
69392;SDS011;56582;44.624;20.378;2022-08-04T09:27:12;8.55;;;4.40;;
69392;SDS011;56582;44.624;20.378;2022-08-04T09:29:46;8.45;;;4.40;;
69392;SDS011;56582;44.624;20.378;2022-08-04T09:32:22;6.20;;;4.00;;
69392;SDS011;56582;44.624;20.378;2022-08-04T09:38:34;6.85;;;4.43;;
69392;SDS011;56582;44.624;20.378;2022-08-04T10:00:03;6.30;;;4.40;;
69392;SDS011;56582;44.624;20.378;2022-08-04T10:02:31;10.05;;;4.40;;
69392;SDS011;56582;44.624;20.378;2022-08-04T10:05:01;5.82;;;4.60;;
69392;SDS011;56582;44.624;20.378;2022-08-04T10:15:16;7.10;;;5.05;;
69392;SDS011;56582;44.624;20.378;2022-08-04T10:23:30;7.07;;;4.50;;
69392;SDS011;56582;44.624;20.378;2022-08-04T10:32:05;8.65;;;4.75;;
69392;SDS011;56582;44.624;20.378;2022-08-04T10:34:40;9.80;;;5.17;;
69392;SDS011;56582;44.624;20.378;2022-08-04T10:42:36;7.28;;;5.47;;
69392;SDS011;56582;44.624;20.378;2022-08-04T10:47:42;8.23;;;4.90;;
69392;SDS011;56582;44.624;20.378;2022-08-04T10:50:15;5.63;;;4.88;;
69392;SDS011;56582;44.624;20.378;2022-08-04T10:52:45;5.93;;;4.47;;
69392;SDS011;56582;44.624;20.378;2022-08-04T10:55:41;7.22;;;4.50;;
69392;SDS011;56582;44.624;20.378;2022-08-04T10:58:22;7.15;;;4.40;;
69392;SDS011;56582;44.624;20.378;2022-08-04T11:00:55;5.37;;;4.00;;
69392;SDS011;56582;44.624;20.378;2022-08-04T11:03:36;6.80;;;4.82;;
69392;SDS011;56582;44.624;20.378;2022-08-04T11:06:08;9.50;;;4.93;;
69392;SDS011;56582;44.624;20.378;2022-08-04T11:08:34;8.00;;;5.47;;
69392;SDS011;56582;44.624;20.378;2022-08-04T11:13:44;6.10;;;4.40;;
69392;SDS011;56582;44.624;20.378;2022-08-04T11:16:59;7.57;;;4.70;;
69392;SDS011;56582;44.624;20.378;2022-08-04T11:22:08;7.25;;;5.55;;
69392;SDS011;56582;44.624;20.378;2022-08-04T11:24:45;6.30;;;4.67;;
69392;SDS011;56582;44.624;20.378;2022-08-04T11:30:21;7.63;;;4.70;;
69392;SDS011;56582;44.624;20.378;2022-08-04T11:39:34;5.03;;;3.70;;
69392;SDS011;56582;44.624;20.378;2022-08-04T11:45:26;6.55;;;3.78;;
69392;SDS011;56582;44.624;20.378;2022-08-04T11:47:59;5.65;;;3.63;;
69392;SDS011;56582;44.624;20.378;2022-08-04T11:50:39;6.30;;;4.28;;
69392;SDS011;56582;44.624;20.378;2022-08-04T11:53:17;7.10;;;3.83;;
69392;SDS011;56582;44.624;20.378;2022-08-04T11:55:48;5.28;;;3.92;;
69392;SDS011;56582;44.624;20.378;2022-08-04T11:58:16;5.22;;;3.60;;
69392;SDS011;56582;44.624;20.378;2022-08-04T12:00:48;6.13;;;3.30;;
69392;SDS011;56582;44.624;20.378;2022-08-04T12:14:27;5.80;;;4.22;;
69392;SDS011;56582;44.624;20.378;2022-08-04T12:17:12;5.10;;;3.80;;
69392;SDS011;56582;44.624;20.378;2022-08-04T12:19:54;5.80;;;3.80;;
69392;SDS011;56582;44.624;20.378;2022-08-04T12:22:26;5.40;;;3.70;;
69392;SDS011;56582;44.624;20.378;2022-08-04T12:25:04;5.15;;;3.90;;
69392;SDS011;56582;44.624;20.378;2022-08-04T12:27:35;5.55;;;3.88;;
69392;SDS011;56582;44.624;20.378;2022-08-04T12:30:10;5.72;;;3.92;;
69392;SDS011;56582;44.624;20.378;2022-08-04T12:33:11;5.10;;;3.60;;
69392;SDS011;56582;44.624;20.378;2022-08-04T12:35:31;6.32;;;3.40;;
69392;SDS011;56582;44.624;20.378;2022-08-04T12:38:11;4.63;;;3.55;;
69392;SDS011;56582;44.624;20.378;2022-08-04T12:43:42;5.78;;;3.38;;
69392;SDS011;56582;44.624;20.378;2022-08-04T12:46:08;6.23;;;3.53;;
69392;SDS011;56582;44.624;20.378;2022-08-04T12:48:37;5.82;;;3.15;;
69392;SDS011;56582;44.624;20.378;2022-08-04T12:51:04;6.13;;;3.60;;
69392;SDS011;56582;44.624;20.378;2022-08-04T12:53:39;5.70;;;3.30;;
69392;SDS011;56582;44.624;20.378;2022-08-04T12:56:07;6.78;;;3.47;;
69392;SDS011;56582;44.624;20.378;2022-08-04T12:58:39;4.23;;;2.97;;
69392;SDS011;56582;44.624;20.378;2022-08-04T13:01:07;6.47;;;2.83;;
69392;SDS011;56582;44.624;20.378;2022-08-04T13:03:39;5.30;;;3.67;;
69392;SDS011;56582;44.624;20.378;2022-08-04T13:06:07;5.60;;;3.28;;
69392;SDS011;56582;44.624;20.378;2022-08-04T13:08:36;5.22;;;3.10;;
69392;SDS011;56582;44.624;20.378;2022-08-04T13:11:04;4.80;;;2.77;;
69392;SDS011;56582;44.624;20.378;2022-08-04T13:13:32;6.40;;;3.00;;
69392;SDS011;56582;44.624;20.378;2022-08-04T13:16:04;5.03;;;3.10;;
69392;SDS011;56582;44.624;20.378;2022-08-04T13:18:34;5.75;;;2.90;;
69392;SDS011;56582;44.624;20.378;2022-08-04T13:21:17;4.93;;;3.00;;
69392;SDS011;56582;44.624;20.378;2022-08-04T13:23:54;4.10;;;2.70;;
69392;SDS011;56582;44.624;20.378;2022-08-04T13:26:25;5.95;;;3.03;;
69392;SDS011;56582;44.624;20.378;2022-08-04T13:28:52;4.50;;;3.13;;
69392;SDS011;56582;44.624;20.378;2022-08-04T13:31:22;4.55;;;3.20;;
69392;SDS011;56582;44.624;20.378;2022-08-04T13:33:52;5.65;;;3.35;;
69392;SDS011;56582;44.624;20.378;2022-08-04T13:36:26;4.83;;;3.37;;
69392;SDS011;56582;44.624;20.378;2022-08-04T13:38:55;6.53;;;3.28;;
69392;SDS011;56582;44.624;20.378;2022-08-04T13:41:22;4.40;;;3.50;;
69392;SDS011;56582;44.624;20.378;2022-08-04T13:43:52;4.80;;;3.08;;
69392;SDS011;56582;44.624;20.378;2022-08-04T13:46:23;4.93;;;3.50;;
69392;SDS011;56582;44.624;20.378;2022-08-04T13:48:52;5.03;;;3.40;;
69392;SDS011;56582;44.624;20.378;2022-08-04T13:51:19;5.40;;;3.58;;
69392;SDS011;56582;44.624;20.378;2022-08-04T13:53:57;5.07;;;3.65;;
69392;SDS011;56582;44.624;20.378;2022-08-04T13:56:24;4.60;;;3.65;;
69392;SDS011;56582;44.624;20.378;2022-08-04T13:58:58;6.65;;;3.65;;
69392;SDS011;56582;44.624;20.378;2022-08-04T14:01:25;4.53;;;3.50;;
69392;SDS011;56582;44.624;20.378;2022-08-04T14:06:31;4.68;;;3.10;;
69392;SDS011;56582;44.624;20.378;2022-08-04T14:08:59;4.88;;;3.20;;
69392;SDS011;56582;44.624;20.378;2022-08-04T14:11:37;4.00;;;2.90;;
69392;SDS011;56582;44.624;20.378;2022-08-04T14:27:50;4.20;;;2.27;;
69392;SDS011;56582;44.624;20.378;2022-08-04T14:30:21;4.32;;;2.55;;
69392;SDS011;56582;44.624;20.378;2022-08-04T14:35:29;4.10;;;2.50;;
69392;SDS011;56582;44.624;20.378;2022-08-04T14:38:03;5.25;;;2.60;;
69392;SDS011;56582;44.624;20.378;2022-08-04T14:40:31;4.20;;;2.03;;
69392;SDS011;56582;44.624;20.378;2022-08-04T14:42:58;3.60;;;2.38;;
69392;SDS011;56582;44.624;20.378;2022-08-04T14:45:31;4.32;;;2.35;;
69392;SDS011;56582;44.624;20.378;2022-08-04T14:48:00;6.47;;;2.00;;
69392;SDS011;56582;44.624;20.378;2022-08-04T14:50:47;4.80;;;2.50;;
69392;SDS011;56582;44.624;20.378;2022-08-04T14:53:23;3.63;;;2.37;;
69392;SDS011;56582;44.624;20.378;2022-08-04T14:55:57;4.00;;;2.60;;
69392;SDS011;56582;44.624;20.378;2022-08-04T14:58:25;5.47;;;3.05;;
69392;SDS011;56582;44.624;20.378;2022-08-04T15:00:54;4.70;;;2.55;;
69392;SDS011;56582;44.624;20.378;2022-08-04T15:03:21;4.90;;;2.90;;
69392;SDS011;56582;44.624;20.378;2022-08-04T15:05:48;7.17;;;2.87;;
69392;SDS011;56582;44.624;20.378;2022-08-04T15:08:15;4.55;;;2.72;;
69392;SDS011;56582;44.624;20.378;2022-08-04T15:10:40;4.38;;;3.25;;
69392;SDS011;56582;44.624;20.378;2022-08-04T15:13:07;4.33;;;2.67;;
69392;SDS011;56582;44.624;20.378;2022-08-04T15:15:33;4.80;;;2.85;;
69392;SDS011;56582;44.624;20.378;2022-08-04T15:17:59;4.45;;;3.50;;
69392;SDS011;56582;44.624;20.378;2022-08-04T15:20:25;5.43;;;3.28;;
69392;SDS011;56582;44.624;20.378;2022-08-04T15:22:51;5.77;;;2.87;;
69392;SDS011;56582;44.624;20.378;2022-08-04T15:25:16;4.97;;;3.27;;
69392;SDS011;56582;44.624;20.378;2022-08-04T15:27:44;7.05;;;3.65;;
69392;SDS011;56582;44.624;20.378;2022-08-04T15:30:12;5.88;;;3.90;;
69392;SDS011;56582;44.624;20.378;2022-08-04T15:32:52;5.30;;;3.90;;
69392;SDS011;56582;44.624;20.378;2022-08-04T15:35:24;6.35;;;4.10;;
69392;SDS011;56582;44.624;20.378;2022-08-04T15:38:05;5.90;;;3.90;;
69392;SDS011;56582;44.624;20.378;2022-08-04T15:45:47;7.80;;;3.20;;
69392;SDS011;56582;44.624;20.378;2022-08-04T15:53:19;5.00;;;3.30;;
69392;SDS011;56582;44.624;20.378;2022-08-04T15:55:45;5.67;;;3.93;;
69392;SDS011;56582;44.624;20.378;2022-08-04T15:58:11;9.10;;;3.70;;
69392;SDS011;56582;44.624;20.378;2022-08-04T16:05:59;6.38;;;3.80;;
69392;SDS011;56582;44.624;20.378;2022-08-04T16:08:24;7.28;;;4.10;;
69392;SDS011;56582;44.624;20.378;2022-08-04T16:10:51;6.00;;;4.18;;
69392;SDS011;56582;44.624;20.378;2022-08-04T16:13:21;4.97;;;3.65;;
69392;SDS011;56582;44.624;20.378;2022-08-04T16:15:54;7.73;;;3.90;;
69392;SDS011;56582;44.624;20.378;2022-08-04T16:20:56;7.32;;;4.30;;
69392;SDS011;56582;44.624;20.378;2022-08-04T16:23:39;5.78;;;4.20;;
69392;SDS011;56582;44.624;20.378;2022-08-04T16:26:39;6.18;;;4.53;;
69392;SDS011;56582;44.624;20.378;2022-08-04T16:37:13;6.25;;;3.72;;
69392;SDS011;56582;44.624;20.378;2022-08-04T16:39:40;5.57;;;4.00;;
69392;SDS011;56582;44.624;20.378;2022-08-04T16:50:11;5.47;;;3.70;;
69392;SDS011;56582;44.624;20.378;2022-08-04T16:52:47;5.53;;;4.47;;
69392;SDS011;56582;44.624;20.378;2022-08-04T16:55:15;5.43;;;3.90;;
69392;SDS011;56582;44.624;20.378;2022-08-04T16:57:45;6.75;;;3.92;;
69392;SDS011;56582;44.624;20.378;2022-08-04T17:00:11;6.20;;;4.47;;
69392;SDS011;56582;44.624;20.378;2022-08-04T17:02:37;8.35;;;4.25;;
69392;SDS011;56582;44.624;20.378;2022-08-04T17:05:03;5.47;;;4.07;;
69392;SDS011;56582;44.624;20.378;2022-08-04T17:07:30;5.22;;;4.15;;
69392;SDS011;56582;44.624;20.378;2022-08-04T17:10:14;6.32;;;4.30;;
69392;SDS011;56582;44.624;20.378;2022-08-04T17:12:40;5.28;;;4.35;;
69392;SDS011;56582;44.624;20.378;2022-08-04T17:15:18;7.00;;;3.80;;
69392;SDS011;56582;44.624;20.378;2022-08-04T17:17:45;5.85;;;4.22;;
69392;SDS011;56582;44.624;20.378;2022-08-04T17:20:10;5.47;;;4.47;;
69392;SDS011;56582;44.624;20.378;2022-08-04T17:22:36;6.43;;;4.20;;
69392;SDS011;56582;44.624;20.378;2022-08-04T17:25:01;5.20;;;4.15;;
69392;SDS011;56582;44.624;20.378;2022-08-04T17:27:28;6.07;;;4.07;;
69392;SDS011;56582;44.624;20.378;2022-08-04T17:29:54;5.60;;;4.30;;
69392;SDS011;56582;44.624;20.378;2022-08-04T17:32:20;5.57;;;4.10;;
69392;SDS011;56582;44.624;20.378;2022-08-04T17:34:47;5.85;;;4.00;;
69392;SDS011;56582;44.624;20.378;2022-08-04T17:37:13;8.27;;;4.15;;
69392;SDS011;56582;44.624;20.378;2022-08-04T17:39:39;6.20;;;4.00;;
69392;SDS011;56582;44.624;20.378;2022-08-04T17:42:05;5.88;;;4.47;;
69392;SDS011;56582;44.624;20.378;2022-08-04T17:44:34;6.87;;;4.20;;
69392;SDS011;56582;44.624;20.378;2022-08-04T17:47:07;7.70;;;5.03;;
69392;SDS011;56582;44.624;20.378;2022-08-04T17:49:42;5.30;;;3.97;;
69392;SDS011;56582;44.624;20.378;2022-08-04T17:52:07;6.03;;;4.10;;
69392;SDS011;56582;44.624;20.378;2022-08-04T17:54:46;5.78;;;4.50;;
69392;SDS011;56582;44.624;20.378;2022-08-04T17:57:23;5.72;;;4.25;;
69392;SDS011;56582;44.624;20.378;2022-08-04T17:59:52;5.33;;;4.23;;
69392;SDS011;56582;44.624;20.378;2022-08-04T18:02:26;6.78;;;4.80;;
69392;SDS011;56582;44.624;20.378;2022-08-04T18:04:53;6.22;;;4.30;;
69392;SDS011;56582;44.624;20.378;2022-08-04T18:07:22;6.53;;;4.70;;
69392;SDS011;56582;44.624;20.378;2022-08-04T18:09:57;7.68;;;4.60;;
69392;SDS011;56582;44.624;20.378;2022-08-04T18:12:28;7.20;;;4.67;;
69392;SDS011;56582;44.624;20.378;2022-08-04T18:15:19;6.32;;;4.35;;
69392;SDS011;56582;44.624;20.378;2022-08-04T18:17:49;6.72;;;4.55;;
69392;SDS011;56582;44.624;20.378;2022-08-04T18:20:15;7.38;;;4.40;;
69392;SDS011;56582;44.624;20.378;2022-08-04T18:22:47;5.80;;;4.20;;
69392;SDS011;56582;44.624;20.378;2022-08-04T18:25:13;5.63;;;4.22;;
69392;SDS011;56582;44.624;20.378;2022-08-04T18:27:53;5.68;;;4.65;;
69392;SDS011;56582;44.624;20.378;2022-08-04T18:30:21;7.50;;;4.53;;
69392;SDS011;56582;44.624;20.378;2022-08-04T18:32:52;6.28;;;4.60;;
69392;SDS011;56582;44.624;20.378;2022-08-04T18:35:19;6.50;;;4.80;;
69392;SDS011;56582;44.624;20.378;2022-08-04T18:37:45;6.20;;;4.28;;
69392;SDS011;56582;44.624;20.378;2022-08-04T18:40:11;7.50;;;4.97;;
69392;SDS011;56582;44.624;20.378;2022-08-04T18:42:37;8.70;;;5.20;;
69392;SDS011;56582;44.624;20.378;2022-08-04T18:45:03;7.73;;;4.83;;
69392;SDS011;56582;44.624;20.378;2022-08-04T18:47:29;5.57;;;4.50;;
69392;SDS011;56582;44.624;20.378;2022-08-04T18:49:55;6.70;;;4.30;;
69392;SDS011;56582;44.624;20.378;2022-08-04T18:52:21;5.97;;;4.32;;
69392;SDS011;56582;44.624;20.378;2022-08-04T18:54:47;5.53;;;4.40;;
69392;SDS011;56582;44.624;20.378;2022-08-04T18:57:19;5.60;;;4.55;;
69392;SDS011;56582;44.624;20.378;2022-08-04T18:59:45;8.20;;;4.40;;
69392;SDS011;56582;44.624;20.378;2022-08-04T19:02:11;7.03;;;4.40;;
69392;SDS011;56582;44.624;20.378;2022-08-04T19:04:37;6.45;;;4.90;;
69392;SDS011;56582;44.624;20.378;2022-08-04T19:07:03;7.13;;;5.10;;
69392;SDS011;56582;44.624;20.378;2022-08-04T19:09:30;6.60;;;4.93;;
69392;SDS011;56582;44.624;20.378;2022-08-04T19:11:55;6.60;;;4.63;;
69392;SDS011;56582;44.624;20.378;2022-08-04T19:14:21;7.07;;;5.13;;
69392;SDS011;56582;44.624;20.378;2022-08-04T19:16:46;6.40;;;4.78;;
69392;SDS011;56582;44.624;20.378;2022-08-04T19:19:12;5.63;;;4.20;;
69392;SDS011;56582;44.624;20.378;2022-08-04T19:21:39;5.85;;;4.60;;
69392;SDS011;56582;44.624;20.378;2022-08-04T19:24:04;5.93;;;4.50;;
69392;SDS011;56582;44.624;20.378;2022-08-04T19:26:30;5.67;;;4.50;;
69392;SDS011;56582;44.624;20.378;2022-08-04T19:28:55;6.23;;;4.93;;
69392;SDS011;56582;44.624;20.378;2022-08-04T19:31:21;7.15;;;4.68;;
69392;SDS011;56582;44.624;20.378;2022-08-04T19:33:47;7.00;;;4.50;;
69392;SDS011;56582;44.624;20.378;2022-08-04T19:36:13;6.68;;;4.65;;
69392;SDS011;56582;44.624;20.378;2022-08-04T19:38:38;7.40;;;4.47;;
69392;SDS011;56582;44.624;20.378;2022-08-04T19:41:04;5.70;;;4.23;;